Time;durP1;ratioP1;P1;durP2;ratioP2;P2;SDS_P1;SDS_P2;PMS_P1;PMS_P2;Temp;Humidity;BMP_temperature;BMP_pressure;BME280_temperature;BME280_humidity;BME280_pressure;Samples;Min_cycle;Max_cycle;Signal;HPM_P1;HPM_P2
2023/01/07 00:01:15;;;;;;;1.10;1.05;;;;;;;11.63;71.54;100884.63;5042574;28;20437;-76
2023/01/07 00:03:45;;;;;;;1.40;1.30;;;;;;;11.65;71.62;100877.09;5047771;28;20798;-76
2023/01/07 00:06:18;;;;;;;1.08;1.08;;;;;;;11.66;71.45;100874.13;5048561;28;20425;-76
2023/01/07 00:08:47;;;;;;;1.25;0.93;;;;;;;11.64;71.45;100880.88;5063029;28;20414;-76
2023/01/07 00:11:16;;;;;;;0.80;0.80;;;;;;;11.67;71.39;100880.38;5046568;28;20393;-76
2023/01/07 00:13:44;;;;;;;1.40;1.33;;;;;;;11.67;71.45;100881.22;5039259;28;20457;-76
2023/01/07 00:16:14;;;;;;;1.20;1.10;;;;;;;11.66;71.46;100876.00;5028426;28;20418;-76
2023/01/07 00:18:42;;;;;;;1.20;1.10;;;;;;;11.65;71.69;100872.50;5043531;28;20392;-76
2023/01/07 00:21:11;;;;;;;2.87;0.83;;;;;;;11.67;71.62;100877.66;5024558;28;20508;-76
2023/01/07 00:23:41;;;;;;;0.80;0.80;;;;;;;11.65;71.76;100871.66;5017696;28;20735;-76
2023/01/07 00:26:16;;;;;;;0.70;0.70;;;;;;;11.66;71.59;100865.97;5034744;28;20461;-76
2023/01/07 00:28:46;;;;;;;3.05;2.22;;;;;;;11.62;71.68;100859.41;5046090;28;20411;-76
2023/01/07 00:31:24;;;;;;;2.38;1.40;;;;;;;11.64;71.62;100867.28;5040851;28;20399;-76
2023/01/07 00:36:30;;;;;;;0.82;0.82;;;;;;;11.66;71.21;100865.97;5043966;28;20466;-76
2023/01/07 00:39:07;;;;;;;1.30;1.20;;;;;;;11.68;71.37;100857.59;5049939;28;20840;-76
2023/01/07 00:42:53;;;;;;;2.03;1.88;;;;;;;11.65;71.50;100855.38;5036902;28;20411;-76
2023/01/07 00:44:39;;;;;;;2.95;2.72;;;;;;;11.63;71.24;100849.34;5030393;28;20387;-76
2023/01/07 00:47:17;;;;;;;3.92;3.63;;;;;;;11.63;71.02;100849.34;5021557;28;20414;-76
2023/01/07 00:49:55;;;;;;;2.27;1.80;;;;;;;11.63;71.40;100838.50;5031321;28;20458;-76
2023/01/07 00:52:29;;;;;;;1.45;1.20;;;;;;;11.65;71.13;100841.81;5043888;28;20405;-76
2023/01/07 00:55:02;;;;;;;0.85;0.85;;;;;;;11.66;71.01;100844.25;5054027;28;20441;-76
2023/01/07 00:57:40;;;;;;;2.45;1.00;;;;;;;11.67;70.94;100845.09;5026449;28;20413;-76
2023/01/07 01:00:15;;;;;;;0.95;0.70;;;;;;;11.67;71.16;100847.81;5027005;28;20501;-76
2023/01/07 01:02:49;;;;;;;0.73;0.73;;;;;;;11.66;71.11;100838.00;5031357;28;20420;-76
2023/01/07 01:05:21;;;;;;;1.30;0.60;;;;;;;11.63;71.34;100836.59;5019471;28;20812;-76
2023/01/07 01:07:55;;;;;;;2.40;0.90;;;;;;;11.65;71.25;100831.78;5024543;28;20397;-76
2023/01/07 01:10:26;;;;;;;1.58;0.80;;;;;;;11.62;70.95;100826.00;5023685;28;20399;-76
2023/01/07 01:12:55;;;;;;;0.80;0.77;;;;;;;11.62;71.32;100834.97;5066291;28;20532;-76
2023/01/07 01:15:26;;;;;;;1.33;0.80;;;;;;;11.60;71.48;100828.94;5034172;28;20409;-76
2023/01/07 01:17:59;;;;;;;0.98;0.98;;;;;;;11.60;71.79;100828.94;5019894;28;20439;-76
2023/01/07 01:20:33;;;;;;;1.00;0.77;;;;;;;11.61;71.67;100832.50;5053798;28;20433;-76
2023/01/07 01:23:11;;;;;;;1.80;1.23;;;;;;;11.62;71.55;100826.00;5032161;28;20398;-76
2023/01/07 01:25:47;;;;;;;0.95;0.90;;;;;;;11.61;71.78;100825.19;5043311;28;20467;-76
2023/01/07 01:28:18;;;;;;;1.27;0.80;;;;;;;11.64;71.50;100826.56;5044719;28;20409;-76
2023/01/07 01:30:51;;;;;;;0.73;0.73;;;;;;;11.63;71.53;100805.91;5036007;28;20397;-76
2023/01/07 01:33:20;;;;;;;1.73;1.40;;;;;;;11.60;71.17;100823.53;5046145;28;20404;-76
2023/01/07 01:35:52;;;;;;;0.67;0.67;;;;;;;11.62;71.07;100826.00;5027368;28;20424;-76
2023/01/07 01:38:18;;;;;;;0.50;0.50;;;;;;;11.65;71.24;100822.81;5053383;28;20392;-76
2023/01/07 01:40:44;;;;;;;1.10;0.77;;;;;;;11.66;70.92;100822.53;5020141;28;20843;-76
2023/01/07 01:43:28;;;;;;;0.70;0.63;;;;;;;11.70;70.91;100823.75;5060497;28;20458;-76
2023/01/07 01:45:55;;;;;;;0.88;0.88;;;;;;;11.69;70.96;100830.19;5039450;28;20421;-76
2023/01/07 01:48:25;;;;;;;0.88;0.88;;;;;;;11.70;70.89;100826.47;5051335;28;20390;-76
2023/01/07 01:50:52;;;;;;;1.25;0.90;;;;;;;11.68;71.01;100827.75;5040546;28;20389;-76
2023/01/07 01:53:29;;;;;;;0.82;0.82;;;;;;;11.67;71.14;100818.78;5058673;28;20897;-76
2023/01/07 01:56:19;;;;;;;0.77;0.77;;;;;;;11.69;71.29;100818.53;5049659;28;20989;-76
2023/01/07 01:58:56;;;;;;;1.23;1.20;;;;;;;11.66;71.47;100813.56;5043604;28;20829;-77
2023/01/07 02:01:26;;;;;;;1.30;1.20;;;;;;;11.66;71.61;100811.69;5016606;28;20435;-76
2023/01/07 02:03:52;;;;;;;0.80;0.80;;;;;;;11.69;71.80;100811.19;5032255;28;20404;-76
2023/01/07 02:06:25;;;;;;;1.00;0.90;;;;;;;11.67;71.57;100810.63;5042669;28;20438;-76
2023/01/07 02:08:51;;;;;;;0.73;0.73;;;;;;;11.62;71.83;100805.13;5015882;28;20486;-76
2023/01/07 02:11:40;;;;;;;0.50;0.50;;;;;;;11.66;71.85;100803.53;5046811;28;20393;-76
2023/01/07 02:14:34;;;;;;;0.90;0.90;;;;;;;11.67;71.77;100805.19;5037721;28;20817;-76
2023/01/07 02:17:25;;;;;;;1.48;0.82;;;;;;;11.66;71.80;100798.13;5035778;28;20499;-76
2023/01/07 02:23:50;;;;;;;1.40;1.40;;;;;;;11.65;72.42;100798.38;4984737;28;20425;-76
2023/01/07 02:26:22;;;;;;;4.22;2.65;;;;;;;11.61;72.37;100789.88;4994265;28;20417;-76
2023/01/07 02:29:08;;;;;;;5.05;3.40;;;;;;;11.60;72.62;100788.22;4971442;28;20422;-76
2023/01/07 02:31:59;;;;;;;6.45;3.70;;;;;;;11.61;72.74;100789.06;5005941;28;20442;-76
2023/01/07 02:34:40;;;;;;;6.10;4.20;;;;;;;11.60;72.85;100788.22;4976005;28;20430;-76
2023/01/07 02:37:37;;;;;;;6.22;4.75;;;;;;;11.59;72.89;100785.78;4976214;28;20424;-76
2023/01/07 02:40:31;;;;;;;4.30;3.17;;;;;;;11.55;72.84;100777.28;4962477;28;20434;-76
2023/01/07 02:43:28;;;;;;;4.77;3.47;;;;;;;11.58;73.08;100771.38;4978207;28;20419;-76
2023/01/07 02:46:18;;;;;;;3.70;3.13;;;;;;;11.56;73.02;100767.25;4971394;28;20754;-76
2023/01/07 02:49:37;;;;;;;4.00;2.47;;;;;;;11.60;72.97;100762.97;4997476;28;20462;-76
2023/01/07 02:52:37;;;;;;;1.80;1.70;;;;;;;11.61;72.75;100761.91;4987036;28;20417;-76
2023/01/07 02:55:41;;;;;;;2.00;1.08;;;;;;;11.59;72.83;100755.91;5024539;28;20398;-76
2023/01/07 02:59:06;;;;;;;0.70;0.70;;;;;;;11.59;72.76;100754.00;5037855;28;20403;-76
2023/01/07 03:02:21;;;;;;;1.77;0.80;;;;;;;11.52;73.17;100750.66;5018828;28;20503;-76
2023/01/07 03:05:17;;;;;;;1.13;0.88;;;;;;;11.52;73.31;100747.09;5035039;28;20427;-76
2023/01/07 03:08:34;;;;;;;1.70;0.80;;;;;;;11.52;73.39;100742.50;5049690;28;20389;-76
2023/01/07 03:11:50;;;;;;;0.90;0.90;;;;;;;11.51;73.36;100734.59;5028494;28;20393;-76
2023/01/07 03:14:51;;;;;;;2.88;1.08;;;;;;;11.51;73.36;100732.69;5040595;28;20408;-76
2023/01/07 03:17:55;;;;;;;2.70;0.98;;;;;;;11.50;73.62;100735.66;5037647;28;20407;-76
2023/01/07 03:20:59;;;;;;;1.10;1.00;;;;;;;11.47;73.81;100731.53;5057593;28;20453;-76
2023/01/07 03:24:33;;;;;;;0.97;0.90;;;;;;;11.48;73.67;100733.19;5046846;28;20459;-76
2023/01/07 03:27:33;;;;;;;1.48;0.57;;;;;;;11.48;73.51;100725.06;5028729;28;20399;-76
2023/01/07 03:30:34;;;;;;;0.77;0.77;;;;;;;11.45;73.80;100720.94;5043912;28;20413;-76
2023/01/07 03:34:07;;;;;;;3.00;0.93;;;;;;;11.46;73.96;100719.03;5054699;28;20405;-76
2023/01/07 03:37:13;;;;;;;2.50;1.08;;;;;;;11.48;73.81;100719.63;5054148;28;20410;-76
2023/01/07 03:40:12;;;;;;;0.80;0.80;;;;;;;11.45;73.70;100718.22;5052152;28;20441;-76
2023/01/07 03:42:59;;;;;;;0.68;0.68;;;;;;;11.46;73.86;100713.59;5038236;28;20419;-76
2023/01/07 03:45:54;;;;;;;1.00;1.00;;;;;;;11.46;73.92;100714.44;5035905;28;20409;-76
2023/01/07 03:49:05;;;;;;;0.70;0.70;;;;;;;11.48;74.05;100710.66;5041409;28;20719;-76
2023/01/07 03:52:10;;;;;;;2.20;1.25;;;;;;;11.45;73.99;100706.53;5065600;28;20385;-76
2023/01/07 03:55:18;;;;;;;13.88;5.25;;;;;;;11.45;74.21;100703.84;5048681;28;20401;-76
2023/01/07 03:58:26;;;;;;;22.13;7.10;;;;;;;11.40;74.36;100699.13;5057868;28;20421;-76
2023/01/07 04:01:14;;;;;;;13.35;5.60;;;;;;;11.41;74.63;100697.25;5051486;28;20450;-76
2023/01/07 04:03:46;;;;;;;24.92;7.40;;;;;;;11.41;74.61;100697.25;5043224;28;20407;-76
2023/01/07 04:06:13;;;;;;;30.95;10.07;;;;;;;11.41;74.67;100694.53;5043405;28;20408;-76
2023/01/07 04:08:47;;;;;;;32.17;10.02;;;;;;;11.40;74.78;100687.44;5034259;28;20391;-76
2023/01/07 04:11:33;;;;;;;11.88;4.60;;;;;;;11.42;74.40;100691.59;5024278;28;20399;-76
2023/01/07 04:14:03;;;;;;;2.42;1.67;;;;;;;11.40;74.33;100690.16;5044900;28;20398;-76
2023/01/07 04:16:35;;;;;;;3.67;1.47;;;;;;;11.38;74.41;100678.75;5060286;28;20402;-76
2023/01/07 04:19:07;;;;;;;1.67;1.35;;;;;;;11.37;74.30;100682.50;5059559;28;20377;-76
2023/01/07 04:21:39;;;;;;;1.08;1.00;;;;;;;11.35;74.41;100668.38;5024894;28;20525;-76
2023/01/07 04:24:13;;;;;;;0.93;0.93;;;;;;;11.35;74.47;100674.63;5045564;28;20393;-76
2023/01/07 04:26:41;;;;;;;1.27;0.90;;;;;;;11.33;74.59;100667.78;5050829;28;20862;-76
2023/01/07 04:29:22;;;;;;;0.80;0.80;;;;;;;11.31;74.56;100662.63;5034155;28;20725;-76
2023/01/07 04:31:58;;;;;;;1.42;0.80;;;;;;;11.26;74.84;100657.09;5033465;28;20405;-76
2023/01/07 04:34:29;;;;;;;0.98;0.98;;;;;;;11.25;74.91;100662.75;5050451;28;20894;-76
2023/01/07 04:37:00;;;;;;;1.10;0.80;;;;;;;11.25;74.92;100658.16;5048070;28;20949;-76
2023/01/07 04:39:32;;;;;;;2.45;0.90;;;;;;;11.24;75.10;100656.50;5057961;28;20432;-76
2023/01/07 04:42:20;;;;;;;1.02;0.88;;;;;;;11.26;75.18;100650.84;5048593;28;20393;-76
2023/01/07 04:45:14;;;;;;;0.80;0.80;;;;;;;11.23;75.11;100649.44;5055629;28;20385;-76
2023/01/07 04:47:41;;;;;;;1.50;0.88;;;;;;;11.24;75.19;100647.53;5027993;28;20421;-76
2023/01/07 04:50:12;;;;;;;0.93;0.70;;;;;;;11.22;75.18;100652.41;5060879;28;20935;-76
2023/01/07 04:52:41;;;;;;;1.10;1.10;;;;;;;11.24;75.34;100644.84;5044455;28;20415;-76
2023/01/07 04:55:09;;;;;;;0.90;0.90;;;;;;;11.23;75.32;100643.22;5036468;28;20745;-76
2023/01/07 04:57:36;;;;;;;0.70;0.70;;;;;;;11.26;75.39;100646.22;5057856;28;20428;-76
2023/01/07 05:00:06;;;;;;;0.93;0.80;;;;;;;11.26;75.12;100640.00;5051468;28;20463;-76
2023/01/07 05:05:07;;;;;;;0.63;0.63;;;;;;;11.26;75.46;100629.94;5011990;28;20487;-73
2023/01/07 05:07:32;;;;;;;0.70;0.70;;;;;;;11.26;75.41;100629.16;5013470;28;20872;-74
2023/01/07 05:09:57;;;;;;;2.30;0.53;;;;;;;11.27;75.36;100630.78;5013221;28;20397;-73
2023/01/07 05:12:22;;;;;;;0.77;0.77;;;;;;;11.28;75.22;100635.97;5012462;28;20938;-73
2023/01/07 05:14:48;;;;;;;0.90;0.63;;;;;;;11.26;74.81;100624.53;5013165;28;20527;-73
2023/01/07 05:17:13;;;;;;;0.60;0.60;;;;;;;11.27;74.93;100628.88;5013182;28;20876;-73
2023/01/07 05:19:38;;;;;;;0.70;0.60;;;;;;;11.28;74.45;100629.72;5013374;28;20385;-74
2023/01/07 05:22:03;;;;;;;0.40;0.40;;;;;;;11.29;74.06;100623.22;4976103;28;20402;-73
2023/01/07 05:24:29;;;;;;;0.30;0.27;;;;;;;11.29;73.74;100617.81;5013249;28;20397;-73
2023/01/07 05:26:54;;;;;;;1.20;0.30;;;;;;;11.28;74.04;100614.28;5013448;28;20400;-74
2023/01/07 05:29:20;;;;;;;0.70;0.20;;;;;;;11.29;73.65;100612.38;4979163;28;20404;-73
2023/01/07 05:31:45;;;;;;;0.80;0.30;;;;;;;11.29;73.50;100612.38;4995594;28;20451;-73
2023/01/07 05:34:10;;;;;;;0.73;0.23;;;;;;;11.30;73.27;100614.00;5010980;28;20863;-73
2023/01/07 05:36:35;;;;;;;0.70;0.30;;;;;;;11.31;73.19;100605.63;5013173;28;20415;-73
2023/01/07 05:39:01;;;;;;;0.30;0.30;;;;;;;11.31;73.30;100604.81;5013191;28;20485;-74
2023/01/07 05:41:26;;;;;;;0.43;0.30;;;;;;;11.31;73.40;100604.81;4995567;28;20413;-74
2023/01/07 05:43:51;;;;;;;0.70;0.60;;;;;;;11.31;73.41;100599.38;5011493;28;20496;-74
2023/01/07 05:46:17;;;;;;;0.30;0.30;;;;;;;11.31;73.19;100594.78;5013030;28;20934;-74
2023/01/07 05:48:42;;;;;;;0.30;0.30;;;;;;;11.30;73.03;100593.13;5013047;28;20482;-73
2023/01/07 05:51:07;;;;;;;0.27;0.20;;;;;;;11.32;72.48;100593.72;5012987;28;20389;-74
2023/01/07 05:53:33;;;;;;;1.00;0.40;;;;;;;11.32;72.56;100587.47;5004530;28;20411;-74
2023/01/07 05:55:59;;;;;;;0.93;0.20;;;;;;;11.31;72.28;100574.97;4991896;28;20442;-74
2023/01/07 05:58:25;;;;;;;1.50;0.30;;;;;;;11.30;72.32;100585.00;5012377;28;20450;-74
2023/01/07 06:00:51;;;;;;;0.28;0.28;;;;;;;11.31;72.28;100586.66;5011718;28;20429;-73
2023/01/07 06:03:16;;;;;;;0.30;0.30;;;;;;;11.31;72.29;100577.69;5011808;28;20413;-73
2023/01/07 06:05:41;;;;;;;0.50;0.50;;;;;;;11.33;71.97;100575.53;5012704;28;20393;-73
2023/01/07 06:08:07;;;;;;;0.40;0.40;;;;;;;11.30;71.93;100576.03;5012523;28;20479;-73
2023/01/07 06:10:32;;;;;;;0.80;0.60;;;;;;;11.30;71.64;100581.44;4994988;28;20412;-74
2023/01/07 06:12:57;;;;;;;0.65;0.65;;;;;;;11.29;71.41;100577.94;5011612;28;20417;-74
2023/01/07 06:15:23;;;;;;;1.10;1.10;;;;;;;11.31;71.45;100580.38;5012418;28;20396;-74
2023/01/07 06:17:48;;;;;;;1.60;1.10;;;;;;;11.28;71.62;100576.28;5012544;28;20404;-73
2023/01/07 06:20:14;;;;;;;2.30;1.10;;;;;;;11.28;71.71;100576.28;5012178;28;20485;-74
2023/01/07 06:22:41;;;;;;;0.93;0.93;;;;;;;11.30;71.72;100578.72;5011603;28;20899;-73
2023/01/07 06:25:06;;;;;;;0.65;0.65;;;;;;;11.30;71.81;100573.31;5012344;28;20446;-74
2023/01/07 06:27:32;;;;;;;0.88;0.65;;;;;;;11.29;71.75;100569.81;5012355;28;20388;-74
2023/01/07 06:29:57;;;;;;;0.50;0.50;;;;;;;11.29;71.43;100572.50;5012261;28;20751;-74
2023/01/07 06:32:23;;;;;;;1.90;0.67;;;;;;;11.26;71.54;100567.56;5011500;28;20400;-73
2023/01/07 06:34:48;;;;;;;0.52;0.52;;;;;;;11.29;71.17;100572.50;5010190;28;20419;-74
2023/01/07 06:37:13;;;;;;;0.60;0.60;;;;;;;11.29;71.22;100577.13;5011468;28;20421;-73
2023/01/07 06:39:39;;;;;;;1.15;0.60;;;;;;;11.30;71.47;100560.56;4995867;28;20397;-74
2023/01/07 06:42:04;;;;;;;0.60;0.60;;;;;;;11.30;71.34;100559.75;5012176;28;20423;-74
2023/01/07 06:44:29;;;;;;;0.60;0.60;;;;;;;11.28;71.44;100556.47;4994426;28;20400;-73
2023/01/07 06:46:55;;;;;;;0.67;0.67;;;;;;;11.28;71.61;100559.19;4992822;28;20412;-73
2023/01/07 06:49:20;;;;;;;1.50;0.50;;;;;;;11.29;71.16;100553.53;5011851;28;20414;-73
2023/01/07 06:51:45;;;;;;;0.50;0.50;;;;;;;11.29;70.87;100550.81;4994434;28;20428;-74
2023/01/07 06:54:11;;;;;;;2.13;0.80;;;;;;;11.30;70.86;100551.59;5011645;28;20409;-73
2023/01/07 06:56:36;;;;;;;0.70;0.70;;;;;;;11.33;70.71;100553.81;5009476;28;20423;-74
2023/01/07 06:59:01;;;;;;;1.30;0.90;;;;;;;11.31;70.88;100551.38;5010849;28;20412;-73
2023/01/07 07:01:26;;;;;;;0.70;0.70;;;;;;;11.32;70.87;100546.78;5011834;28;20451;-74
2023/01/07 07:03:52;;;;;;;1.07;1.03;;;;;;;11.32;71.24;100544.88;5011124;28;20417;-74
2023/01/07 07:06:17;;;;;;;0.97;0.97;;;;;;;11.33;70.87;100545.69;5010211;28;20443;-74
2023/01/07 07:08:42;;;;;;;1.13;1.13;;;;;;;11.34;70.75;100541.91;4993952;28;20745;-73
2023/01/07 07:11:10;;;;;;;0.93;0.93;;;;;;;11.32;70.71;100528.59;5010627;28;20409;-73
2023/01/07 07:13:35;;;;;;;1.05;0.90;;;;;;;11.31;71.07;100531.56;5013419;28;20824;-73
2023/01/07 07:16:01;;;;;;;0.73;0.73;;;;;;;11.29;71.32;100537.25;5012765;28;20420;-74
2023/01/07 07:18:26;;;;;;;0.70;0.60;;;;;;;11.29;71.37;100534.53;5014615;28;20767;-74
2023/01/07 07:20:51;;;;;;;0.60;0.60;;;;;;;11.30;71.22;100535.31;5014281;28;20422;-74
2023/01/07 07:23:17;;;;;;;1.90;0.60;;;;;;;11.30;71.11;100529.91;5013181;28;20729;-74
2023/01/07 07:25:42;;;;;;;0.60;0.60;;;;;;;11.31;71.21;100528.84;5012148;28;20921;-73
2023/01/07 07:28:07;;;;;;;0.60;0.60;;;;;;;11.33;71.03;100526.69;4994524;28;20458;-73
2023/01/07 07:30:33;;;;;;;1.57;0.50;;;;;;;11.31;70.88;100526.13;5014120;28;20416;-74
2023/01/07 07:33:02;;;;;;;1.60;0.60;;;;;;;11.29;71.08;100529.09;5015858;28;20464;-73
2023/01/07 07:35:28;;;;;;;1.90;0.52;;;;;;;11.27;71.42;100530.41;5017956;28;20397;-73
2023/01/07 07:37:53;;;;;;;1.45;0.60;;;;;;;11.25;71.55;100529.84;5013581;28;20404;-73
2023/01/07 07:40:19;;;;;;;1.60;0.60;;;;;;;11.25;71.33;100522.53;5014608;28;20741;-73
2023/01/07 07:42:44;;;;;;;0.47;0.47;;;;;;;11.26;71.34;100518.72;5014593;28;20396;-73
2023/01/07 07:45:10;;;;;;;2.77;0.57;;;;;;;11.24;71.52;100512.72;5014752;28;20401;-74
2023/01/07 07:47:35;;;;;;;2.60;0.60;;;;;;;11.27;71.74;100509.53;5014102;28;20511;-73
2023/01/07 07:50:00;;;;;;;0.60;0.40;;;;;;;11.25;71.49;100503.53;5014557;28;20479;-73
2023/01/07 07:52:25;;;;;;;0.50;0.50;;;;;;;11.27;71.36;100504.09;5013227;28;20401;-73
2023/01/07 07:54:51;;;;;;;1.10;0.60;;;;;;;11.27;71.14;100500.56;5014168;28;20819;-73
2023/01/07 07:57:16;;;;;;;0.70;0.30;;;;;;;11.26;71.48;100496.22;4994621;28;20405;-73
2023/01/07 07:59:41;;;;;;;2.10;0.60;;;;;;;11.24;71.36;100499.16;5014520;28;20872;-74
2023/01/07 08:02:18;;;;;;;1.80;0.30;;;;;;;11.24;71.24;100491.03;5014210;28;20412;-73
2023/01/07 08:04:44;;;;;;;1.77;0.50;;;;;;;11.26;70.80;100498.94;5013716;28;20949;-73
2023/01/07 08:07:10;;;;;;;0.40;0.40;;;;;;;11.26;70.55;100494.31;5011287;28;20825;-73
2023/01/07 08:09:36;;;;;;;1.67;0.82;;;;;;;11.23;70.52;100491.28;5014578;28;20391;-74
2023/01/07 08:12:01;;;;;;;2.33;0.40;;;;;;;11.19;70.59;100490.97;5013998;28;20966;-74
2023/01/07 08:14:26;;;;;;;0.40;0.30;;;;;;;11.21;70.37;100483.41;5013589;28;20951;-73
2023/01/07 08:16:52;;;;;;;0.30;0.30;;;;;;;11.21;70.10;100477.97;5013551;28;20511;-73
2023/01/07 08:19:17;;;;;;;0.67;0.30;;;;;;;11.21;69.80;100477.97;5013597;28;20416;-73
2023/01/07 08:21:43;;;;;;;0.40;0.40;;;;;;;11.24;69.53;100480.19;5014322;28;20420;-73
2023/01/07 08:24:08;;;;;;;0.90;0.70;;;;;;;11.25;69.54;100468.28;5013549;28;20401;-73
2023/01/07 08:26:33;;;;;;;1.67;0.80;;;;;;;11.25;69.68;100470.97;5010799;28;20498;-73
2023/01/07 08:28:58;;;;;;;0.20;0.20;;;;;;;11.31;69.26;100469.16;5013438;28;20498;-73
2023/01/07 08:31:24;;;;;;;0.50;0.20;;;;;;;11.33;68.79;100465.13;5014599;28;20404;-73
2023/01/07 08:33:49;;;;;;;0.90;0.23;;;;;;;11.34;68.52;100477.63;5014264;28;20385;-73
2023/01/07 08:36:14;;;;;;;0.20;0.20;;;;;;;11.35;68.51;100468.41;5014083;28;20495;-73
2023/01/07 08:38:40;;;;;;;1.10;0.30;;;;;;;11.37;68.64;100470.88;5012750;28;20420;-74
2023/01/07 08:41:05;;;;;;;1.77;0.33;;;;;;;11.39;68.68;100472.25;5012440;28;20435;-74
2023/01/07 08:43:30;;;;;;;0.30;0.30;;;;;;;11.40;68.54;100479.34;5012662;28;20451;-74
2023/01/07 08:45:56;;;;;;;0.77;0.17;;;;;;;11.40;68.32;100473.91;5013495;28;20741;-74
2023/01/07 08:48:21;;;;;;;1.00;0.30;;;;;;;11.40;68.11;100464.94;5012157;28;20409;-75
2023/01/07 08:50:51;;;;;;;1.10;0.50;;;;;;;11.40;67.99;100467.66;5012355;28;20409;-73
2023/01/07 08:53:21;;;;;;;1.60;0.20;;;;;;;11.39;67.97;100472.25;5013580;28;20541;-75
2023/01/07 08:55:47;;;;;;;0.47;0.47;;;;;;;11.43;67.79;100472.56;4995792;28;20401;-74
2023/01/07 08:58:12;;;;;;;0.40;0.30;;;;;;;11.41;67.88;100467.41;5013811;28;20404;-74
2023/01/07 09:00:41;;;;;;;1.70;0.30;;;;;;;11.44;67.68;100463.38;5011087;28;20904;-74
2023/01/07 09:03:06;;;;;;;0.65;0.65;;;;;;;11.45;67.45;100463.13;5013293;28;20420;-74
2023/01/07 09:05:32;;;;;;;0.17;0.17;;;;;;;11.45;67.72;100465.03;5013208;28;20953;-74
2023/01/07 09:07:57;;;;;;;0.80;0.30;;;;;;;11.45;67.34;100457.72;5013503;28;20397;-74
2023/01/07 09:20:28;;;;;;;2.50;2.30;;;;;;;11.47;67.42;100446.59;4997693;28;20437;-77
2023/01/07 09:22:53;;;;;;;1.87;0.30;;;;;;;11.46;67.53;100444.94;5004893;28;20400;-74
2023/01/07 09:28:40;;;;;;;1.30;0.50;;;;;;;11.52;67.24;100435.81;5010902;28;20458;-74
2023/01/07 09:31:06;;;;;;;3.72;0.70;;;;;;;11.58;67.21;100439.41;4995420;28;20807;-77
2023/01/07 09:33:32;;;;;;;0.95;0.95;;;;;;;11.62;67.14;100444.09;5012391;28;20407;-75
2023/01/07 09:35:58;;;;;;;1.25;0.50;;;;;;;11.65;67.50;100427.31;5017240;28;20391;-75
2023/01/07 09:38:23;;;;;;;0.40;0.40;;;;;;;11.66;67.24;100437.06;4997063;28;20401;-75
2023/01/07 09:40:48;;;;;;;0.30;0.30;;;;;;;11.68;67.10;100431.41;5018608;28;20420;-77
2023/01/07 09:46:35;;;;;;;0.40;0.30;;;;;;;11.84;67.00;100423.22;5008362;28;20492;-74
2023/01/07 09:49:02;;;;;;;1.70;0.40;;;;;;;11.90;66.99;100426.81;5010576;28;20491;-74
2023/01/07 09:51:33;;;;;;;1.23;0.50;;;;;;;11.97;67.07;100413.84;5011783;28;20839;-74
2023/01/07 09:54:01;;;;;;;2.20;0.43;;;;;;;12.07;66.80;100421.28;5011851;28;20420;-75
2023/01/07 09:56:30;;;;;;;0.85;0.60;;;;;;;12.15;66.93;100423.56;5012433;28;20397;-74
2023/01/07 09:58:57;;;;;;;0.50;0.50;;;;;;;12.20;66.48;100424.41;5011799;28;20408;-75
2023/01/07 10:01:31;;;;;;;0.70;0.60;;;;;;;12.25;66.41;100423.66;5012420;28;20420;-75
2023/01/07 10:04:22;;;;;;;0.40;0.40;;;;;;;12.36;66.10;100411.78;5011992;28;20543;-75
2023/01/07 10:06:57;;;;;;;0.20;0.20;;;;;;;12.43;65.81;100406.97;5012645;28;20434;-74
2023/01/07 10:09:49;;;;;;;0.20;0.20;;;;;;;12.53;65.35;100409.78;5011104;28;20767;-74
2023/01/07 10:12:28;;;;;;;0.32;0.32;;;;;;;12.73;64.83;100392.81;5011348;28;20842;-73
2023/01/07 10:14:59;;;;;;;0.20;0.20;;;;;;;13.04;64.31;100385.69;5007620;28;20428;-75
2023/01/07 10:17:45;;;;;;;1.25;0.50;;;;;;;13.06;63.93;100380.81;5011553;28;20401;-74
2023/01/07 10:20:23;;;;;;;0.30;0.30;;;;;;;12.99;64.19;100383.75;5003399;28;20420;-76
2023/01/07 10:23:08;;;;;;;0.50;0.50;;;;;;;12.89;63.15;100375.53;5010764;28;20500;-73
2023/01/07 10:25:40;;;;;;;0.77;0.77;;;;;;;12.78;62.94;100369.19;5011966;28;20409;-74
2023/01/07 10:28:37;;;;;;;1.77;1.67;;;;;;;12.67;63.07;100367.50;5012089;28;20412;-74
2023/01/07 10:31:17;;;;;;;1.00;0.70;;;;;;;12.57;62.62;100369.31;5005315;28;20807;-74
2023/01/07 10:33:45;;;;;;;0.57;0.57;;;;;;;12.51;62.47;100360.31;5011122;28;20401;-74
2023/01/07 10:36:28;;;;;;;1.05;1.00;;;;;;;12.55;62.33;100347.81;5012139;28;20420;-73
2023/01/07 10:39:26;;;;;;;3.25;2.10;;;;;;;12.60;62.43;100347.03;4994585;28;20455;-73
2023/01/07 10:42:25;;;;;;;0.75;0.75;;;;;;;12.66;62.10;100344.09;5001170;28;20424;-73
2023/01/07 10:45:10;;;;;;;0.60;0.60;;;;;;;12.68;61.11;100325.63;5011164;28;20497;-73
2023/01/07 10:48:13;;;;;;;0.60;0.60;;;;;;;12.83;61.08;100327.63;5010345;28;20705;-74
2023/01/07 10:50:55;;;;;;;1.75;0.85;;;;;;;12.92;60.91;100309.72;5011732;28;20425;-74
2023/01/07 10:54:00;;;;;;;0.40;0.40;;;;;;;12.98;60.39;100308.66;5012026;28;20722;-73
2023/01/07 10:56:30;;;;;;;0.63;0.63;;;;;;;13.19;59.96;100306.91;5011607;28;20408;-74
2023/01/07 10:58:56;;;;;;;0.50;0.50;;;;;;;13.31;59.36;100293.88;4992195;28;20419;-74
2023/01/07 11:01:25;;;;;;;0.80;0.80;;;;;;;13.45;58.82;100295.00;5010550;28;20903;-73
2023/01/07 11:03:53;;;;;;;0.65;0.65;;;;;;;13.56;58.62;100293.16;5011742;28;20455;-73
2023/01/07 11:06:32;;;;;;;0.47;0.47;;;;;;;13.64;58.30;100282.53;5011705;28;20451;-74
2023/01/07 11:08:59;;;;;;;0.50;0.50;;;;;;;13.61;57.74;100288.53;5010142;28;20448;-73
2023/01/07 11:11:24;;;;;;;0.60;0.57;;;;;;;13.57;57.71;100281.19;4993899;28;20407;-73
2023/01/07 11:14:03;;;;;;;0.60;0.60;;;;;;;13.60;57.54;100281.44;5011776;28;20401;-73
2023/01/07 11:16:34;;;;;;;0.60;0.60;;;;;;;13.66;57.33;100271.38;5011529;28;20479;-73
2023/01/07 11:19:04;;;;;;;0.63;0.60;;;;;;;13.79;57.27;100268.16;5003129;28;20412;-73
2023/01/07 11:21:31;;;;;;;0.50;0.50;;;;;;;13.84;57.10;100271.69;5011548;28;20455;-73
2023/01/07 11:23:57;;;;;;;0.50;0.50;;;;;;;13.81;57.20;100260.50;5011674;28;20385;-73
2023/01/07 11:26:25;;;;;;;0.60;0.60;;;;;;;13.83;56.70;100275.50;5011441;28;20503;-74
2023/01/07 11:29:01;;;;;;;0.50;0.50;;;;;;;13.82;57.00;100267.59;5007059;28;20460;-73
2023/01/07 11:31:45;;;;;;;0.80;0.57;;;;;;;13.97;56.66;100252.06;5001623;28;20385;-74
2023/01/07 11:34:31;;;;;;;0.77;0.77;;;;;;;13.86;56.54;100253.16;5011464;28;20500;-74
2023/01/07 11:36:56;;;;;;;0.95;0.95;;;;;;;13.77;56.66;100243.88;5009368;28;20404;-73
2023/01/07 11:39:25;;;;;;;0.80;0.80;;;;;;;13.73;56.90;100233.81;5009886;28;20404;-73
2023/01/07 11:41:59;;;;;;;0.75;0.75;;;;;;;13.59;56.91;100233.53;4993614;28;20448;-73
2023/01/07 11:44:25;;;;;;;1.13;0.70;;;;;;;13.53;57.13;100229.97;5011397;28;20748;-74
2023/01/07 11:46:51;;;;;;;0.75;0.75;;;;;;;13.67;57.01;100232.16;5011218;28;20492;-73
2023/01/07 11:49:43;;;;;;;1.67;0.60;;;;;;;13.91;56.88;100216.94;5010084;28;20408;-74
2023/01/07 11:52:17;;;;;;;0.88;0.70;;;;;;;13.96;56.48;100215.03;5011570;28;20467;-74
2023/01/07 11:54:49;;;;;;;0.88;0.88;;;;;;;14.00;56.57;100205.22;5011416;28;20443;-73
2023/01/07 11:57:25;;;;;;;2.05;1.85;;;;;;;13.98;56.41;100209.31;5010993;28;20392;-73
2023/01/07 12:00:12;;;;;;;1.50;1.48;;;;;;;13.97;56.17;100208.50;5011275;28;20416;-73
2023/01/07 12:02:38;;;;;;;0.80;0.80;;;;;;;13.87;56.03;100200.31;5015043;28;20393;-73
2023/01/07 12:05:25;;;;;;;2.15;1.95;;;;;;;13.78;56.20;100196.50;5014625;28;20547;-73
2023/01/07 12:07:51;;;;;;;3.55;3.20;;;;;;;13.62;57.08;100185.88;5013074;28;20405;-74
2023/01/07 12:10:52;;;;;;;1.90;1.80;;;;;;;13.53;57.38;100189.13;5014726;28;20871;-73
2023/01/07 12:13:22;;;;;;;1.43;1.43;;;;;;;13.45;58.08;100175.25;5004243;28;20942;-73
2023/01/07 12:15:56;;;;;;;2.40;1.00;;;;;;;13.38;57.75;100175.50;5014614;28;20419;-75
2023/01/07 12:18:43;;;;;;;1.98;0.82;;;;;;;13.33;58.45;100167.34;5012672;28;20416;-73
2023/01/07 12:21:51;;;;;;;2.67;1.02;;;;;;;13.29;58.06;100160.81;4996953;28;20428;-73
2023/01/07 12:24:32;;;;;;;1.13;1.13;;;;;;;13.31;57.88;100149.63;5002469;28;20891;-73